Flight Briefing for CPX361

Departure Arrival
Seattle-Tacoma International Airport (KSEA)
Click to view FAA NOTAMS
Miami International Airport (KMIA)
Click to view FAA NOTAMS
Departure Time Arrival Time
N/A N/A
Aircraft Distance
B767-300BDSF 2411nm
Departure METAR Arrival METAR
KSEA 212153Z 01009KT 10SM BKN022 15/08 A2978 RMK AO2 SLP091 T01500083 KMIA 212153Z 11011KT 10SM FEW044 FEW060 FEW250 31/19 A2992 RMK AO2 SLP133 T03060189
Suggested Route
SEA NORMY J90 MWH DLN DDY BFF SGF MEM MGM SZW PLYER JUULI SSCOT5


View recent IFR Routes data
Notes



Charts and Procedures

Charts for KSEA
No chart available
Charts for KMIA
No chart available

Windy.com Weather Map